Station History

Weather Underground - logo

Station Historical Data
Daily Summary for September 16, 2017 Units:  English    Metric   Both
« Previous Day
Next Day »
Daily Weekly Monthly Yearly Custom
  High: Low: Average:
Temperature: 87.2 °F 57.0 °F 72 °F
Dew Point: 62.0 °F 52.2 °F 56.5 °F
Humidity: 87 % 35 % 61 %
Wind Speed: 4.6 mph 0.0 mph 1 mph
Wind Gust: 4.6 mph - -
Wind:- - SW
Pressure: 29.91 in 29.76 in -
Precipitation: 0.00 in    
Historical Graphs
 
 
Tabular Data for September 16, 2017
Time Temperature Dew Point Pressure Wind Wind Speed Wind Gust Humidity Rainfall Rate (Hourly)
00:02 66.0 °F 55.5 °F 29.83 in Calm     69 % 0.00 in
00:07 65.6 °F 55.2 °F 29.83 in Calm     69 % 0.00 in
00:12 65.2 °F 54.8 °F 29.83 in Calm     69 % 0.00 in
00:17 64.9 °F 54.1 °F 29.83 in Calm     68 % 0.00 in
00:22 64.8 °F 54.0 °F 29.83 in Calm     68 % 0.00 in
00:27 64.8 °F 54.0 °F 29.83 in Calm     68 % 0.00 in
00:32 65.2 °F 53.6 °F 29.83 in Calm     66 % 0.00 in
00:37 65.7 °F 53.2 °F 29.83 in Calm     64 % 0.00 in
00:42 66.0 °F 53.5 °F 29.83 in Calm     64 % 0.00 in
00:47 66.0 °F 52.6 °F 29.83 in Calm     62 % 0.00 in
00:52 66.0 °F 53.5 °F 29.83 in Calm     64 % 0.00 in
00:57 65.8 °F 52.9 °F 29.83 in Calm     63 % 0.00 in
01:02 65.6 °F 52.2 °F 29.83 in Calm     62 % 0.00 in
01:07 65.5 °F 53.4 °F 29.83 in Calm     65 % 0.00 in
01:12 65.2 °F 53.1 °F 29.83 in Calm     65 % 0.00 in
01:17 64.9 °F 53.7 °F 29.83 in Calm     67 % 0.00 in
01:22 64.5 °F 52.9 °F 29.83 in Calm     66 % 0.00 in
01:27 64.3 °F 52.7 °F 29.83 in Calm     66 % 0.00 in
01:32 64.2 °F 53.8 °F 29.83 in Calm     69 % 0.00 in
01:37 64.1 °F 52.9 °F 29.83 in NNW 1.0 mph 1.0 mph 67 % 0.00 in
01:42 64.1 °F 53.3 °F 29.83 in Calm     68 % 0.00 in
01:47 63.9 °F 53.5 °F 29.83 in Calm     69 % 0.00 in
01:52 63.6 °F 53.6 °F 29.83 in Calm     70 % 0.00 in
01:57 63.3 °F 53.7 °F 29.83 in Calm     71 % 0.00 in
02:02 62.9 °F 53.7 °F 29.83 in Calm     72 % 0.00 in
02:07 62.6 °F 53.8 °F 29.83 in Calm     73 % 0.00 in
02:12 62.4 °F 54.0 °F 29.83 in Calm     74 % 0.00 in
02:18 62.0 °F 54.0 °F 29.83 in Calm     75 % 0.00 in
02:28 61.7 °F 54.1 °F 29.83 in Calm     76 % 0.00 in
02:33 61.4 °F 54.5 °F 29.83 in Calm     78 % 0.00 in
02:38 61.2 °F 54.3 °F 29.83 in Calm     78 % 0.00 in
02:43 61.0 °F 53.4 °F 29.83 in Calm     76 % 0.00 in
02:48 60.9 °F 53.6 °F 29.83 in Calm     77 % 0.00 in
02:53 60.8 °F 53.9 °F 29.83 in Calm     78 % 0.00 in
02:58 60.7 °F 54.1 °F 29.83 in Calm     79 % 0.00 in
03:03 60.7 °F 53.8 °F 29.83 in Calm     78 % 0.00 in
03:08 60.6 °F 53.7 °F 29.83 in Calm     78 % 0.00 in
03:13 60.4 °F 53.9 °F 29.83 in Calm     79 % 0.00 in
03:18 60.1 °F 53.9 °F 29.83 in Calm     80 % 0.00 in
03:23 59.8 °F 54.0 °F 29.83 in Calm     81 % 0.00 in
03:28 59.6 °F 53.8 °F 29.83 in Calm     81 % 0.00 in
03:33 59.5 °F 53.7 °F 29.83 in Calm     81 % 0.00 in
03:38 59.5 °F 53.7 °F 29.83 in Calm     81 % 0.00 in
03:43 59.6 °F 53.8 °F 29.83 in Calm     81 % 0.00 in
03:48 59.7 °F 53.5 °F 29.83 in Calm     80 % 0.00 in
03:53 59.7 °F 53.5 °F 29.83 in Calm     80 % 0.00 in
03:58 59.7 °F 53.9 °F 29.83 in Calm     81 % 0.00 in
04:03 59.6 °F 53.8 °F 29.83 in Calm     81 % 0.00 in
04:08 59.6 °F 53.8 °F 29.83 in Calm     81 % 0.00 in
04:13 59.5 °F 53.7 °F 29.83 in Calm     81 % 0.00 in
04:18 59.2 °F 53.4 °F 29.84 in Calm     81 % 0.00 in
04:23 59.0 °F 53.5 °F 29.84 in Calm     82 % 0.00 in
04:28 58.8 °F 53.3 °F 29.84 in Calm     82 % 0.00 in
04:33 58.7 °F 53.2 °F 29.84 in Calm     82 % 0.00 in
04:38 58.6 °F 53.5 °F 29.84 in NNW 1.2 mph 1.2 mph 83 % 0.00 in
04:43 58.5 °F 53.4 °F 29.84 in Calm     83 % 0.00 in
04:48 58.4 °F 53.3 °F 29.84 in Calm     83 % 0.00 in
04:49 58.4 °F 53.3 °F 29.84 in Calm     83 % 0.00 in
04:54 58.4 °F 53.3 °F 29.84 in Calm     83 % 0.00 in
04:59 58.3 °F 53.2 °F 29.84 in Calm     83 % 0.00 in
05:04 58.2 °F 53.4 °F 29.84 in Calm     84 % 0.00 in
05:09 58.2 °F 53.4 °F 29.84 in NNW 1.2 mph   84 % 0.00 in
05:14 58.0 °F 53.5 °F 29.84 in Calm     85 % 0.00 in
05:19 58.0 °F 53.5 °F 29.84 in Calm     85 % 0.00 in
05:24 57.9 °F 53.4 °F 29.85 in Calm     85 % 0.00 in
05:29 57.8 °F 53.3 °F 29.85 in Calm     85 % 0.00 in
05:39 57.8 °F 53.3 °F 29.85 in Calm     85 % 0.00 in
05:44 57.9 °F 53.4 °F 29.85 in Calm     85 % 0.00 in
05:49 57.9 °F 53.1 °F 29.85 in Calm     84 % 0.00 in
05:54 57.9 °F 53.1 °F 29.85 in Calm   0.1 mph 84 % 0.00 in
05:59 57.9 °F 53.1 °F 29.85 in Calm     84 % 0.00 in
06:04 57.8 °F 53.0 °F 29.85 in Calm     84 % 0.00 in
06:09 57.8 °F 53.0 °F 29.86 in Calm     84 % 0.00 in
06:14 57.7 °F 52.9 °F 29.86 in Calm     84 % 0.00 in
06:19 57.6 °F 53.1 °F 29.86 in Calm     85 % 0.00 in
06:24 57.5 °F 53.0 °F 29.86 in Calm     85 % 0.00 in
06:30 57.4 °F 52.9 °F 29.86 in Calm     85 % 0.00 in
06:35 57.3 °F 52.8 °F 29.87 in Calm     85 % 0.00 in
06:40 57.4 °F 52.9 °F 29.87 in Calm     85 % 0.00 in
06:45 57.3 °F 52.8 °F 29.87 in Calm     85 % 0.00 in
06:50 57.3 °F 52.8 °F 29.87 in Calm     85 % 0.00 in
06:55 57.2 °F 53.0 °F 29.87 in NNW 1.2 mph 1.2 mph 86 % 0.00 in
07:00 57.1 °F 53.0 °F 29.87 in NNW 1.2 mph 1.2 mph 86 % 0.00 in
07:05 57.0 °F 52.9 °F 29.88 in Calm     86 % 0.00 in
07:10 57.0 °F 52.9 °F 29.88 in Calm     86 % 0.00 in
07:15 57.2 °F 53.4 °F 29.88 in NNW 1.2 mph 1.2 mph 87 % 0.00 in
07:20 57.3 °F 53.5 °F 29.88 in Calm     87 % 0.00 in
07:25 57.5 °F 53.3 °F 29.89 in Calm     86 % 0.00 in
07:30 57.8 °F 53.6 °F 29.89 in Calm     86 % 0.00 in
07:35 58.2 °F 54.0 °F 29.89 in Calm     86 % 0.00 in
07:40 58.6 °F 54.1 °F 29.89 in NNW 1.2 mph 1.2 mph 85 % 0.00 in
07:45 59.1 °F 54.3 °F 29.89 in NNW 1.2 mph 1.2 mph 84 % 0.00 in
07:50 59.6 °F 54.4 °F 29.89 in NNW 1.2 mph 1.2 mph 83 % 0.00 in
07:55 60.1 °F 54.6 °F 29.89 in Calm     82 % 0.00 in
08:00 61.0 °F 55.1 °F 29.89 in ENE 2.3 mph 2.3 mph 81 % 0.00 in
08:05 62.2 °F 55.3 °F 29.90 in ENE 1.2 mph 1.2 mph 78 % 0.00 in
08:10 63.2 °F 55.1 °F 29.90 in Calm     75 % 0.00 in
08:20 64.7 °F 54.7 °F 29.90 in South 1.2 mph 1.2 mph 70 % 0.00 in
08:25 65.3 °F 54.5 °F 29.90 in ESE 2.3 mph 2.3 mph 68 % 0.00 in
08:30 65.7 °F 54.8 °F 29.90 in NW 2.3 mph 2.3 mph 68 % 0.00 in
08:35 66.4 °F 54.7 °F 29.90 in SSE 1.2 mph   66 % 0.00 in
08:40 67.2 °F 55.0 °F 29.90 in ESE 1.2 mph 1.2 mph 65 % 0.00 in
08:45 67.5 °F 54.9 °F 29.90 in ESE 1.2 mph   64 % 0.00 in
08:50 67.7 °F 54.6 °F 29.90 in ENE 1.2 mph 1.2 mph 63 % 0.00 in
08:51 67.7 °F 55.1 °F 29.90 in ENE 1.2 mph 1.2 mph 64 % 0.00 in
08:56 68.0 °F 54.9 °F 29.90 in West 1.2 mph   63 % 0.00 in
09:01 68.6 °F 55.1 °F 29.91 in SE 1.2 mph 1.2 mph 62 % 0.00 in
09:06 69.2 °F 55.6 °F 29.90 in East 2.3 mph 2.3 mph 62 % 0.00 in
09:11 69.3 °F 55.3 °F 29.91 in ENE 1.2 mph 1.2 mph 61 % 0.00 in
09:16 70.0 °F 55.9 °F 29.91 in Calm     61 % 0.00 in
09:21 70.8 °F 56.2 °F 29.91 in SE 2.3 mph 2.3 mph 60 % 0.00 in
09:26 71.1 °F 56.0 °F 29.91 in Calm     59 % 0.00 in
09:31 71.4 °F 55.4 °F 29.91 in East 1.2 mph 1.2 mph 57 % 0.00 in
09:36 71.4 °F 55.4 °F 29.91 in East 1.2 mph 1.2 mph 57 % 0.00 in
09:41 71.4 °F 55.9 °F 29.91 in East 2.3 mph 2.3 mph 58 % 0.00 in
09:46 71.9 °F 56.8 °F 29.91 in NNE 1.2 mph 1.2 mph 59 % 0.00 in
09:51 72.8 °F 56.2 °F 29.91 in SE 3.5 mph 3.5 mph 56 % 0.00 in
09:56 73.4 °F 56.2 °F 29.91 in Calm   0.5 mph 55 % 0.00 in
10:01 73.9 °F 56.7 °F 29.91 in SSE 1.2 mph 1.2 mph 55 % 0.00 in
10:06 74.0 °F 56.3 °F 29.91 in SSW 3.5 mph 3.5 mph 54 % 0.00 in
10:12 74.3 °F 56.6 °F 29.91 in SSW 1.2 mph   54 % 0.00 in
10:17 74.8 °F 56.0 °F 29.91 in East 2.3 mph 2.3 mph 52 % 0.00 in
10:22 74.6 °F 56.3 °F 29.91 in SE 3.5 mph 3.5 mph 53 % 0.00 in
10:27 74.2 °F 56.0 °F 29.90 in NE 3.0 mph 3.0 mph 53 % 0.00 in
10:32 74.5 °F 56.2 °F 29.90 in SE 4.6 mph 4.6 mph 53 % 0.00 in
10:37 74.9 °F 57.1 °F 29.90 in SSE 1.2 mph 1.2 mph 54 % 0.00 in
10:42 75.4 °F 56.5 °F 29.90 in East 3.5 mph 3.5 mph 52 % 0.00 in
10:47 75.5 °F 56.6 °F 29.90 in SE 3.5 mph 3.5 mph 52 % 0.00 in
10:52 75.7 °F 56.8 °F 29.90 in SSE 3.5 mph 3.5 mph 52 % 0.00 in
10:57 76.4 °F 56.9 °F 29.89 in NE 4.6 mph 4.6 mph 51 % 0.00 in
11:02 76.8 °F 57.3 °F 29.89 in West 3.5 mph 3.5 mph 51 % 0.00 in
11:07 77.3 °F 57.8 °F 29.89 in South 1.2 mph   51 % 0.00 in
11:12 77.7 °F 57.6 °F 29.89 in SSE 3.5 mph 3.5 mph 50 % 0.00 in
11:17 78.0 °F 57.3 °F 29.89 in South 3.5 mph 3.5 mph 49 % 0.00 in
11:22 78.3 °F 57.6 °F 29.89 in SSE 3.5 mph 3.5 mph 49 % 0.00 in
11:27 78.6 °F 57.8 °F 29.89 in SE 3.5 mph 3.5 mph 49 % 0.00 in
11:32 79.1 °F 58.3 °F 29.89 in SE 2.3 mph 2.3 mph 49 % 0.00 in
11:37 79.6 °F 58.8 °F 29.88 in SSW 2.3 mph 2.3 mph 49 % 0.00 in
11:42 80.0 °F 58.0 °F 29.88 in East 2.3 mph 2.3 mph 47 % 0.00 in
11:47 80.2 °F 58.1 °F 29.88 in East 1.2 mph 1.2 mph 47 % 0.00 in
11:52 80.7 °F 57.4 °F 29.87 in SSE 1.2 mph 1.2 mph 45 % 0.00 in
11:57 80.7 °F 57.4 °F 29.87 in SE 3.5 mph 3.5 mph 45 % 0.00 in
12:02 81.4 °F 58.0 °F 29.86 in NNW 1.2 mph 1.2 mph 45 % 0.00 in
12:12 82.2 °F 57.5 °F 29.86 in West 3.0 mph 3.0 mph 43 % 0.00 in
12:17 81.8 °F 58.4 °F 29.86 in West 2.3 mph 2.3 mph 45 % 0.00 in
12:22 81.7 °F 58.3 °F 29.86 in East 1.2 mph 1.2 mph 45 % 0.00 in
12:27 82.2 °F 59.4 °F 29.86 in NE 2.3 mph 2.3 mph 46 % 0.00 in
12:32 82.9 °F 59.4 °F 29.86 in East 1.2 mph 1.2 mph 45 % 0.00 in
12:37 83.1 °F 57.6 °F 29.86 in WNW 2.3 mph 2.3 mph 42 % 0.00 in
12:42 82.9 °F 57.5 °F 29.85 in NNW 1.2 mph 1.2 mph 42 % 0.00 in
12:47 83.0 °F 55.5 °F 29.85 in ESE 2.3 mph 2.3 mph 39 % 0.00 in
12:52 82.8 °F 57.4 °F 29.85 in Calm     42 % 0.00 in
12:57 83.3 °F 57.8 °F 29.84 in South 2.3 mph 2.3 mph 42 % 0.00 in
13:00 83.7 °F 57.5 °F 29.84 in South 1.2 mph   41 % 0.00 in
13:05 84.4 °F 57.4 °F 29.84 in NNE 3.5 mph 3.5 mph 40 % 0.00 in
13:10 84.3 °F 58.7 °F 29.84 in WNW 2.3 mph 2.3 mph 42 % 0.00 in
13:13 84.2 °F 58.6 °F 29.84 in WNW 1.2 mph 1.2 mph 42 % 0.00 in
13:18 83.9 °F 57.7 °F 29.83 in NW 1.2 mph 1.2 mph 41 % 0.00 in
13:23 83.5 °F 56.6 °F 29.83 in WNW 2.3 mph 2.3 mph 40 % 0.00 in
13:28 83.4 °F 58.6 °F 29.83 in SE 2.0 mph 2.0 mph 43 % 0.00 in
13:34 83.9 °F 56.3 °F 29.83 in NW 2.3 mph 2.3 mph 39 % 0.00 in
13:39 83.9 °F 57.0 °F 29.83 in WNW 1.2 mph   40 % 0.00 in
13:44 84.2 °F 57.9 °F 29.83 in WNW 4.6 mph 4.6 mph 41 % 0.00 in
13:49 84.3 °F 57.3 °F 29.82 in NNW 2.0 mph 2.0 mph 40 % 0.00 in
13:54 84.4 °F 57.4 °F 29.82 in NNW 1.2 mph 1.2 mph 40 % 0.00 in
13:59 84.9 °F 57.2 °F 29.82 in ESE 3.5 mph 3.5 mph 39 % 0.00 in
14:04 84.7 °F 57.0 °F 29.82 in SSW 2.3 mph 2.3 mph 39 % 0.00 in
14:09 84.9 °F 56.5 °F 29.82 in WNW 2.3 mph 2.3 mph 38 % 0.00 in
14:14 85.1 °F 57.4 °F 29.82 in ESE 1.2 mph 1.2 mph 39 % 0.00 in
14:19 84.8 °F 57.1 °F 29.81 in WNW 3.5 mph 3.5 mph 39 % 0.00 in
14:24 84.7 °F 55.5 °F 29.81 in SSE 2.3 mph 2.3 mph 37 % 0.00 in
14:29 85.3 °F 58.2 °F 29.81 in South 2.3 mph 2.3 mph 40 % 0.00 in
14:34 85.8 °F 57.3 °F 29.81 in WNW 1.2 mph 1.2 mph 38 % 0.00 in
14:39 85.8 °F 56.5 °F 29.81 in NW 2.3 mph 2.3 mph 37 % 0.00 in
14:44 85.7 °F 56.4 °F 29.81 in NW 3.5 mph 3.5 mph 37 % 0.00 in
14:49 85.7 °F 57.9 °F 29.80 in NNW 1.2 mph 1.2 mph 39 % 0.00 in
14:54 86.0 °F 56.7 °F 29.80 in NW 1.2 mph 1.4 mph 37 % 0.00 in
14:59 86.0 °F 56.7 °F 29.80 in NW 2.3 mph 2.3 mph 37 % 0.00 in
15:04 86.5 °F 56.4 °F 29.80 in WNW 1.2 mph 1.2 mph 36 % 0.00 in
15:09 86.8 °F 55.9 °F 29.79 in NW 3.5 mph 3.5 mph 35 % 0.00 in
15:15 86.4 °F 56.3 °F 29.79 in WNW 3.5 mph 3.5 mph 36 % 0.00 in
15:20 86.6 °F 58.0 °F 29.79 in Calm     38 % 0.00 in
15:24 87.2 °F 57.8 °F 29.79 in NW 2.3 mph 2.3 mph 37 % 0.00 in
15:29 86.6 °F 56.5 °F 29.79 in NW 1.2 mph 1.2 mph 36 % 0.00 in
15:34 86.4 °F 57.0 °F 29.78 in NW 3.5 mph 3.5 mph 37 % 0.00 in
15:39 86.2 °F 56.9 °F 29.78 in North 4.6 mph 4.6 mph 37 % 0.00 in
15:44 86.3 °F 57.7 °F 29.78 in West 1.2 mph 1.2 mph 38 % 0.00 in
15:50 86.3 °F 56.2 °F 29.78 in WNW 3.5 mph 3.5 mph 36 % 0.00 in
15:55 86.1 °F 56.8 °F 29.78 in WNW 2.3 mph 2.3 mph 37 % 0.00 in
16:00 86.1 °F 56.8 °F 29.78 in WNW 3.5 mph 3.5 mph 37 % 0.00 in
16:05 85.7 °F 56.4 °F 29.78 in WNW 2.3 mph 2.3 mph 37 % 0.00 in
16:10 85.6 °F 56.3 °F 29.78 in WNW 1.2 mph   37 % 0.00 in
16:15 85.8 °F 56.5 °F 29.78 in SE 1.2 mph   37 % 0.00 in
16:20 85.9 °F 56.6 °F 29.77 in WNW 2.3 mph 2.3 mph 37 % 0.00 in
16:25 86.1 °F 56.8 °F 29.77 in NW 1.2 mph 1.2 mph 37 % 0.00 in
16:30 86.1 °F 56.0 °F 29.77 in WNW 2.3 mph 2.3 mph 36 % 0.00 in
16:35 86.1 °F 58.2 °F 29.77 in NW 1.2 mph 1.2 mph 39 % 0.00 in
16:40 86.4 °F 57.8 °F 29.77 in NW 2.3 mph 2.3 mph 38 % 0.00 in
16:45 86.3 °F 58.4 °F 29.77 in WNW 3.5 mph 3.5 mph 39 % 0.00 in
16:50 85.9 °F 57.3 °F 29.77 in NNW 2.3 mph 2.3 mph 38 % 0.00 in
16:55 85.8 °F 57.3 °F 29.77 in NNW 1.2 mph 1.2 mph 38 % 0.00 in
17:00 85.8 °F 57.3 °F 29.77 in WNW 2.3 mph 2.3 mph 38 % 0.00 in
17:05 85.7 °F 57.9 °F 29.76 in NW 3.0 mph 3.0 mph 39 % 0.00 in
17:10 85.6 °F 57.8 °F 29.77 in NW 3.5 mph 3.5 mph 39 % 0.00 in
17:15 85.8 °F 58.0 °F 29.76 in NNW 3.5 mph 3.5 mph 39 % 0.00 in
17:20 85.8 °F 58.0 °F 29.76 in NNW 3.5 mph 3.5 mph 39 % 0.00 in
17:25 85.3 °F 57.5 °F 29.76 in NW 2.3 mph 2.3 mph 39 % 0.00 in
17:30 84.8 °F 57.8 °F 29.76 in NNW 1.2 mph 1.2 mph 40 % 0.00 in
17:35 84.3 °F 58.0 °F 29.76 in NW 2.3 mph 2.3 mph 41 % 0.00 in
17:40 84.0 °F 57.8 °F 29.76 in NW 1.2 mph 1.2 mph 41 % 0.00 in
17:45 83.7 °F 58.2 °F 29.76 in WNW 1.2 mph   42 % 0.00 in
17:50 83.6 °F 58.7 °F 29.76 in NW 2.3 mph 2.3 mph 43 % 0.00 in
17:55 83.6 °F 58.1 °F 29.76 in WNW 1.2 mph 1.2 mph 42 % 0.00 in
18:00 83.4 °F 58.6 °F 29.76 in NNW 2.3 mph 2.3 mph 43 % 0.00 in
18:05 83.2 °F 59.0 °F 29.76 in WNW 1.2 mph 1.2 mph 44 % 0.00 in
18:10 82.9 °F 58.7 °F 29.76 in NW 1.2 mph 1.2 mph 44 % 0.00 in
18:15 82.6 °F 59.1 °F 29.76 in NW 1.0 mph 1.0 mph 45 % 0.00 in
18:20 82.3 °F 58.2 °F 29.76 in WNW 1.2 mph 1.2 mph 44 % 0.00 in
18:25 82.0 °F 58.6 °F 29.76 in NW 1.2 mph   45 % 0.00 in
18:30 81.7 °F 58.9 °F 29.76 in Calm     46 % 0.00 in
18:35 81.3 °F 58.5 °F 29.76 in Calm     46 % 0.00 in
18:40 81.0 °F 58.3 °F 29.76 in NW 1.2 mph 1.2 mph 46 % 0.00 in
18:45 80.8 °F 58.7 °F 29.76 in Calm     47 % 0.00 in
18:50 80.6 °F 58.5 °F 29.76 in Calm     47 % 0.00 in
18:55 80.3 °F 58.2 °F 29.76 in Calm     47 % 0.00 in
19:00 80.0 °F 59.1 °F 29.76 in Calm     49 % 0.00 in
19:05 79.5 °F 59.2 °F 29.76 in Calm     50 % 0.00 in
19:10 78.9 °F 59.2 °F 29.76 in Calm     51 % 0.00 in
19:15 78.4 °F 59.9 °F 29.76 in Calm     53 % 0.00 in
19:21 77.8 °F 60.3 °F 29.76 in Calm     55 % 0.00 in
19:25 77.3 °F 59.9 °F 29.76 in Calm     55 % 0.00 in
19:31 76.9 °F 59.5 °F 29.76 in Calm     55 % 0.00 in
19:36 76.6 °F 60.7 °F 29.76 in Calm     58 % 0.00 in
19:41 76.4 °F 60.5 °F 29.76 in Calm     58 % 0.00 in
19:46 76.1 °F 59.8 °F 29.77 in Calm     57 % 0.00 in
19:51 75.8 °F 60.0 °F 29.77 in Calm     58 % 0.00 in
19:56 75.5 °F 61.1 °F 29.77 in Calm     61 % 0.00 in
20:01 75.1 °F 61.2 °F 29.77 in Calm     62 % 0.00 in
20:06 74.8 °F 61.4 °F 29.77 in Calm     63 % 0.00 in
20:11 74.5 °F 61.5 °F 29.77 in Calm     64 % 0.00 in
20:16 74.3 °F 61.3 °F 29.77 in Calm     64 % 0.00 in
20:21 74.1 °F 60.2 °F 29.77 in Calm     62 % 0.00 in
20:22 74.0 °F 60.6 °F 29.77 in Calm     63 % 0.00 in
20:26 73.9 °F 61.0 °F 29.77 in Calm     64 % 0.00 in
20:29 73.8 °F 61.7 °F 29.77 in Calm     66 % 0.00 in
20:34 73.5 °F 61.4 °F 29.78 in Calm     66 % 0.00 in
20:39 73.2 °F 62.0 °F 29.78 in Calm     68 % 0.00 in
20:44 72.6 °F 60.2 °F 29.78 in Calm     65 % 0.00 in
20:49 72.3 °F 60.3 °F 29.78 in Calm     66 % 0.00 in
20:54 72.2 °F 60.6 °F 29.78 in Calm     67 % 0.00 in
20:59 72.0 °F 60.9 °F 29.79 in Calm     68 % 0.00 in
21:04 71.9 °F 60.3 °F 29.79 in Calm     67 % 0.00 in
21:09 71.9 °F 59.9 °F 29.79 in Calm     66 % 0.00 in
21:14 72.2 °F 59.8 °F 29.79 in Calm     65 % 0.00 in
21:19 72.0 °F 60.0 °F 29.79 in Calm     66 % 0.00 in
21:24 71.6 °F 60.5 °F 29.79 in Calm     68 % 0.00 in
21:29 71.3 °F 60.2 °F 29.79 in Calm     68 % 0.00 in
21:34 71.2 °F 60.1 °F 29.80 in Calm     68 % 0.00 in
21:39 71.1 °F 60.0 °F 29.80 in Calm     68 % 0.00 in
21:44 71.0 °F 60.3 °F 29.80 in Calm     69 % 0.00 in
21:45 70.9 °F 59.8 °F 29.80 in Calm     68 % 0.00 in
21:50 70.7 °F 60.0 °F 29.80 in Calm     69 % 0.00 in
21:55 70.5 °F 60.2 °F 29.81 in Calm     70 % 0.00 in
22:00 70.4 °F 59.7 °F 29.81 in WNW 1.2 mph   69 % 0.00 in
22:05 70.4 °F 59.7 °F 29.81 in SE 1.2 mph   69 % 0.00 in
22:10 70.3 °F 60.1 °F 29.81 in Calm     70 % 0.00 in
22:15 70.1 °F 60.3 °F 29.81 in Calm     71 % 0.00 in
22:21 70.1 °F 59.9 °F 29.81 in Calm     70 % 0.00 in
22:25 70.1 °F 59.9 °F 29.81 in Calm     70 % 0.00 in
22:31 69.9 °F 59.7 °F 29.81 in Calm     70 % 0.00 in
22:36 69.8 °F 59.6 °F 29.81 in Calm     70 % 0.00 in
22:46 69.8 °F 59.2 °F 29.81 in Calm     69 % 0.00 in
22:51 70.0 °F 59.4 °F 29.81 in Calm     69 % 0.00 in
22:56 69.9 °F 60.1 °F 29.81 in Calm     71 % 0.00 in
23:01 69.6 °F 59.8 °F 29.81 in Calm     71 % 0.00 in
23:06 69.4 °F 60.0 °F 29.81 in Calm     72 % 0.00 in
23:11 69.3 °F 59.5 °F 29.81 in Calm     71 % 0.00 in
23:16 69.1 °F 59.3 °F 29.82 in Calm     71 % 0.00 in
23:21 68.9 °F 59.9 °F 29.82 in Calm     73 % 0.00 in
23:26 68.7 °F 59.7 °F 29.82 in Calm     73 % 0.00 in
23:31 68.5 °F 59.5 °F 29.82 in Calm     73 % 0.00 in
23:36 68.3 °F 58.9 °F 29.82 in Calm     72 % 0.00 in
23:41 68.1 °F 58.7 °F 29.82 in Calm     72 % 0.00 in
23:46 67.9 °F 58.5 °F 29.82 in Calm     72 % 0.00 in
23:51 67.6 °F 58.2 °F 29.82 in Calm     72 % 0.00 in
23:56 67.3 °F 58.0 °F 29.82 in Calm     72 % 0.00 in
Park Place, Exeter, Tulare County, California, USA
Compliments of Weather Underground - 2.75 mb